South Duxbury, Vermont
Current Conditions -  °F | °C
As of 6:51 AM on Thursday 18 Dec 2014 (Local Time) from KMPV Reporting Station
Overcast Overcast  
Wind Chill: 25°   Ceiling: 2800
Heat Index: 32°   Visibility: 9mi
Dew Point: 29°   Wind: 8mph
Humidity: 88%   Direction: 320°NW
Pressure: 29.76"   Gusts: NA
Location:  44.2533°N, 72.7398°W
Report Text: KMPV 181151Z AUTO 32007KT 9SM FEW014 SCT023 OVC028 00/M02 A2976 RMK AO2 SNE41 SLP092 P0000 60000 70010 I6000 T00001017 10011 20000 53012
Loading
Personal Weather Stations






























Interactive Weather Map New forecast layout! Learn more

10-Day Weather Forecast

Advertisements
Track Severe Weather on mobile